Tiempo atmosférico en la estación meteorológica de Guadalupe , Cáceres (640 m.)



Fecha
DESCASC
Temp. máxima en grados centígrados (hora)
DESCASC
Temp. mínima en grados centígrados (hora)
DESCASC
Temp. media en grados centígrados
DESCASC
Racha de viento máxima en m/sg (hora)
DESCASC
Velocidad máxima media en intervalos de 10 minutos(hora)
DESCASC
Precipitaciones diarias en mm
DESCASC
Precipitaciones de 00:00 a 06:00 en mm
DESCASC
Precipitaciones de 06:00 a 12:00 en mm
DESCASC
Precipitaciones de 12:00 a 18:00 en mm
DESCASC
Precipitaciones de 18:00 a 24:00 en mm
DESCASC
27-01-2020 12.7 (15:00) 2.8 (00:20) 7.7 6.39 (14:30) 2.5 (14:20) 5.2 0 0 0.2 5
26-01-2020 9 (15:10) 3.1 (23:59) 6 3.61 (06:50) 2.22 (06:00) 0 0 0 0 0
25-01-2020 9.5 (16:40) 4.7 (00:00) 7.1 4.72 (00:10) 2.5 (12:10) 17.2 12.8 2.2 1 1.2
24-01-2020 9.2 (16:20) 5.3 (00:00) 7.3 3.89 (02:20) 2.22 (13:10) 19.4 10 2.4 0.2 6.8
23-01-2020 7 (17:20) 5.1 (00:00) 6 3.06 (23:40) 1.39 (23:10) 12.6 1.6 2.2 3.2 5.6
22-01-2020 9.7 (16:10) 4.8 (00:00) 7.3 7.22 (02:20) 3.33 (01:50) 0.6 0 0.6 0 0
21-01-2020 8.1 (13:10) 4.2 (00:00) 6.2 15.28 (06:50) 6.94 (01:40) 0 0 0 0 0
20-01-2020 5.2 (13:10) 2.3 (00:00) 3.7 18.61 (02:40) 8.06 (19:50) 0.4 0 0 0.4 0
19-01-2020 11 (12:30) 4 (00:00) 7.5 15.56 (21:00) 6.39 (21:00) 0.4 0.2 0.2 0 0
18-01-2020 11.6 (20:40) 6.1 (00:00) 8.9 10.83 (22:00) 3.06 (22:10) 13.6 0.4 9.6 3 0.6
17-01-2020 13.1 (15:20) 6 (00:00) 9.6 5 (00:40) 2.22 (01:50) 0.8 0 0.2 0.6 0
16-01-2020 15 (14:40) 8.2 (00:00) 11.6 6.39 (14:00) 2.78 (13:10) 0.6 0.4 0.2 0 0
15-01-2020 8.3 (23:30) 3.8 (00:00) 6.1 3.89 (01:20) 1.67 (12:30) 0 0 0 0 0
14-01-2020 10.1 (14:20) 0.2 (00:00) 5.2 4.72 (16:30) 2.22 (16:00) 0 0 0 0 0
13-01-2020 11.8 (15:00) 0.9 (00:00) 6.4 4.17 (16:10) 2.5 (13:50) 0 0 0 0 0
12-01-2020 13.2 (14:30) 0.9 (00:00) 7 3.89 (15:10) 1.94 (15:50) 0 0 0 0 0
11-01-2020 13.5 (14:30) 2.7 (00:00) 8.1 4.72 (07:20) 3.33 (07:30) 0 0 0 0 0
10-01-2020 12.5 (14:10) 3.4 (00:00) 8 7.22 (17:50) 3.33 (14:40) 0 0 0 0 0
09-01-2020 14.3 (14:30) 4 (00:00) 9.2 3.89 (16:40) 2.22 (14:00) 0 0 0 0 0
08-01-2020 15.9 (15:40) 3.2 (00:00) 9.5 2.78 (13:30) 1.67 (15:20) 0 0 0 0 0
07-01-2020 16.3 (15:10) 2.6 (00:00) 9.4 2.78 (14:40) 1.67 (13:20) 0 0 0 0 0
06-01-2020 14.9 (14:50) 3.4 (00:00) 9.1 3.33 (18:10) 2.22 (18:20) 0 0 0 0 0
05-01-2020 14.9 (14:50) 3 (00:00) 8.9 3.33 (14:50) 1.67 (15:00) 0 0 0 0 0
04-01-2020 14.1 (14:20) 3.9 (00:00) 9 6.94 (15:30) 3.33 (14:40) 0 0 0 0 0
03-01-2020 11.2 (14:20) 3.6 (00:00) 7.4 3.61 (14:40) 1.67 (14:10) 0 0 0 0 0
02-01-2020 14.6 (15:00) 3.3 (00:00) 9 3.06 (14:30) 1.67 (16:30) 0 0 0 0 0
01-01-2020 15.4 (15:20) 3.2 (00:00) 9.3 2.22 (12:50) 1.39 (14:00) 0 0 0 0 0
31-12-2019 16.2 (15:00) 2.6 (00:00) 9.4 2.5 (15:00) 1.39 (15:50) 0 0 0 0 0
30-12-2019 16.9 (14:50) 3.8 (00:00) 10.3 2.78 (14:30) 1.39 (14:20) 0 0 0 0 0

Gráficas

Temp. máximas Temp. mínimas Temp. medias Precipitaciones Rachas de viento máximas Velocidades máximas media en intervalos de 10 minutos

Datos horarios

Fecha y hora oficial Temperatura (ºC) Velocidad del viento (km/h) Dirección del viento Racha (km/h) Dirección de racha Precipitación (mm) Presión (hPa) Tendencia (hPa) Humedad (%)
2020-01-28 23:00:00 11.2 2 Oeste 17 Noroeste 0 -- -- 82
2020-01-28 22:00:00 11.2 3 Norte 15 Sudoeste 0 -- -- 85
2020-01-28 21:00:00 11.2 3 Sudeste 12 Sudoeste 0 -- -- 85
2020-01-28 20:00:00 11.6 3 Sur 18 Oeste 0 -- -- 79
2020-01-28 19:00:00 11.6 0 Calma 12 Sudoeste 0 -- -- 79
2020-01-28 18:00:00 12.2 2 Sudeste 15 Sur 0 -- -- 76
2020-01-28 17:00:00 12.4 4 Sudoeste 16 Oeste 0 -- -- 78
2020-01-28 16:00:00 12.6 6 Sudoeste 22 Sur 0 -- -- 80
2020-01-28 15:00:00 12.1 5 Sur 16 Sur 1 -- -- 87
2020-01-28 14:00:00 11.3 3 Sur 13 Sudoeste 0.6 -- -- 94
2020-01-28 13:00:00 11.6 3 Sur 14 Sur 0 -- -- 91
2020-01-28 12:00:00 10.9 2 Sur 7 Sur 0 -- -- 94
2020-01-28 11:00:00 10.2 0 Calma 5 Sudeste 0 -- -- 97
2020-01-28 10:00:00 9.5 2 Este 4 Este 0.2 -- -- 98
2020-01-28 09:00:00 9.1 2 Este 9 Nordeste 0.6 -- -- 98
2020-01-28 08:00:00 9 5 Nordeste 10 Este 0.8 -- -- 98
2020-01-28 07:00:00 8.9 5 Este 9 Este 0.4 -- -- 98
2020-01-28 06:00:00 9 0 Calma 6 Nordeste 0.2 -- -- 98
2020-01-28 05:00:00 9 3 Nordeste 8 Nordeste 0.2 -- -- 97
2020-01-28 04:00:00 9.2 2 Nordeste 17 Sudoeste 0.2 -- -- 95
2020-01-28 03:00:00 9.2 4 Sur 15 Sudoeste 0.4 -- -- 95
2020-01-28 02:00:00 9.2 3 Sur 17 Sudoeste 0.2 -- -- 95
2020-01-28 01:00:00 9.1 5 Sur 19 Sudoeste 0.8 -- -- 94
2020-01-28 00:00:00 9 0 Calma 12 Sur 0.8 -- -- 95
2020-01-27 23:00:00 9 2 Sudoeste 13 Sur 0.6 -- -- 96
2020-01-27 22:00:00 8.9 3 Sudoeste 20 Sudoeste 0.2 -- -- 95
2020-01-27 21:00:00 8.3 0 Calma 8 Sudoeste 2 -- -- 96
2020-01-27 20:00:00 8.3 0 Calma 5 Sur 1 -- -- 95
2020-01-27 19:00:00 8.5 0 Calma 12 Sur 0.4 -- -- 94
2020-01-27 18:00:00 9.1 0 Calma 11 Sur 0.2 -- -- 86
2020-01-27 17:00:00 9.4 3 Sur 14 Sudoeste 0 -- -- 83
2020-01-27 16:00:00 10.8 4 Sur 18 Sudoeste 0 -- -- 74
2020-01-27 15:00:00 12.7 6 Sur 23 Sur 0 -- -- 64
2020-01-27 14:00:00 10.8 6 Sudeste 22 Sudeste 0 -- -- 74
2020-01-27 13:00:00 7.8 8 Nordeste 18 Este 0 -- -- 95
2020-01-27 12:00:00 5.6 8 Este 14 Este 0 -- -- 99
2020-01-27 11:00:00 5.1 6 Este 10 Este 0 -- -- 100
2020-01-27 10:00:00 4.7 5 Este 9 Nordeste 0 -- -- 100
2020-01-27 09:00:00 4.7 0 Calma 6 Este 0 -- -- 100
2020-01-27 08:00:00 4.6 0 Calma 2 Sudoeste 0 -- -- 100
2020-01-27 07:00:00 4.6 0 Calma 4 Noroeste 0 -- -- 100
2020-01-27 06:00:00 4.1 0 Calma 2 Sudoeste 0 -- -- 100
2020-01-27 05:00:00 3.7 0 Calma 5 Oeste 0 -- -- 100
2020-01-27 04:00:00 3.1 0 Calma 3 Oeste 0 -- -- 99
2020-01-27 03:00:00 3.1 0 Calma 4 Noroeste 0 -- -- 100
2020-01-27 02:00:00 3.5 2 Noroeste 5 Oeste 0 -- -- 99
2020-01-27 01:00:00 3.3 0 Calma 2 Noroeste 0 -- -- 99
2020-01-27 00:00:00 3.1 0 Calma 5 Noroeste 0 -- -- 98
2020-01-26 23:00:00 4.4 0 Calma 4 Sur 0 -- -- 98
2020-01-26 22:00:00 5 2 Noroeste 4 Oeste 0 -- -- 98
2020-01-26 21:00:00 5.4 2 Noroeste 3 Noroeste 0 -- -- 97
2020-01-26 20:00:00 5.7 0 Calma 2 Sudoeste 0 -- -- 96
2020-01-26 19:00:00 6.2 0 Calma 5 Sur 0 -- -- 94
2020-01-26 18:00:00 7.4 3 Sur 9 Sudeste 0 -- -- 91
2020-01-26 17:00:00 7.7 3 Sudeste 9 Este 0 -- -- 88
2020-01-26 16:00:00 7.6 5 Sudeste 11 Sudeste 0 -- -- 89
2020-01-26 15:00:00 8.8 5 Sudeste 8 Sur 0 -- -- 86
2020-01-26 14:00:00 7.4 3 Sudeste 9 Este 0 -- -- 91
2020-01-26 13:00:00 6.6 3 Sur 8 Este 0 -- -- 93
2020-01-26 12:00:00 5.6 0 Calma 6 Sudeste 0 -- -- 95
2020-01-26 11:00:00 5.9 3 Sur 5 Sudeste 0 -- -- 88
2020-01-26 10:00:00 6.1 2 Nordeste 5 Sur 0 -- -- 86
2020-01-26 09:00:00 3.9 0 Calma 9 Norte 0 -- -- 91
2020-01-26 08:00:00 3.6 0 Calma 10 Noroeste 0 -- -- 92
2020-01-26 07:00:00 4.4 6 Noroeste 13 Noroeste 0 -- -- 91
2020-01-26 06:00:00 4.8 8 Norte 11 Norte 0 -- -- 90
2020-01-26 05:00:00 4.4 3 Noroeste 6 Noroeste 0 -- -- 94
2020-01-26 04:00:00 5.3 0 Calma 4 Sudoeste 0 -- -- 97
2020-01-26 03:00:00 5.6 2 Noroeste 6 Oeste 0 -- -- 98
2020-01-26 02:00:00 5.1 2 Oeste 9 Oeste 0 -- -- 98
2020-01-26 01:00:00 4.5 0 Calma 8 Oeste 0 -- -- 98
2020-01-26 00:00:00 4.7 2 Oeste 7 Oeste 0 -- -- 97
2020-01-25 23:00:00 5.8 2 Noroeste 6 Oeste 0 -- -- 94
2020-01-25 22:00:00 6.6 3 Oeste 7 Noroeste 0.2 -- -- 94
2020-01-25 21:00:00 6.8 4 Noroeste 6 Noroeste 0.6 -- -- 95
2020-01-25 20:00:00 6.8 5 Noroeste 10 Noroeste 0 -- -- 92
2020-01-25 19:00:00 7.9 0 Calma 4 Noroeste 0.4 -- -- 93
2020-01-25 18:00:00 8.4 0 Calma 6 Este 0 -- -- 92
2020-01-25 17:00:00 9.1 3 Este 12 Este 0 -- -- 88
2020-01-25 16:00:00 9 2 Sudeste 7 Sudeste 0 -- -- 86
2020-01-25 15:00:00 8.7 5 Sudeste 12 Sur 0 -- -- 90
2020-01-25 14:00:00 7.6 6 Sudeste 14 Sur 1 -- -- 95
2020-01-25 13:00:00 7.8 5 Sudeste 14 Sudeste 0 -- -- 95
2020-01-25 12:00:00 8 8 Este 13 Este 0 -- -- 97
2020-01-25 11:00:00 7 3 Sudeste 10 Este 0 -- -- 98
2020-01-25 10:00:00 6.8 0 Calma 6 Sudeste 1.2 -- -- 98
2020-01-25 09:00:00 6.8 2 Sudeste 6 Este 0.2 -- -- 98
2020-01-25 08:00:00 6.8 2 Sudeste 7 Sudeste 0.4 -- -- 97
2020-01-25 07:00:00 6.8 0 Calma 14 Sur 0.4 -- -- 97
2020-01-25 06:00:00 6.8 3 Sudeste 15 Sur 0.2 -- -- 97
2020-01-25 05:00:00 6.8 5 Sudeste 11 Sur 1 -- -- 98
2020-01-25 04:00:00 6.6 3 Sudeste 8 Este 1.8 -- -- 99
2020-01-25 03:00:00 6.4 3 Este 11 Sur 4.4 -- -- 99
2020-01-25 02:00:00 6.5 4 Sur 16 Sudeste 1.8 -- -- 98
2020-01-25 01:00:00 6.4 4 Sudeste 17 Sudeste 3.6 -- -- 96
2020-01-25 00:00:00 6.5 4 Sur 10 Sudeste 5 -- -- 97
2020-01-24 23:00:00 6.9 0 Calma 5 Oeste 1.8 -- -- 95
2020-01-24 22:00:00 7.1 2 Oeste 4 Oeste 0 -- -- 92
2020-01-24 21:00:00 7.1 0 Calma 4 Nordeste 0 -- -- 90
2020-01-24 20:00:00 7.9 0 Calma 6 Sudeste 0 -- -- 86
2020-01-24 19:00:00 8.1 2 Este 8 Nordeste 0 -- -- 85
2020-01-24 18:00:00 8.6 0 Calma 7 Sudeste 0 -- -- 85
2020-01-24 17:00:00 9 4 Este 9 Este 0 -- -- 83
2020-01-24 16:00:00 9.1 4 Sudeste 8 Sudeste 0.2 -- -- 83
2020-01-24 15:00:00 8.8 4 Este 10 Sudeste 0 -- -- 85
2020-01-24 14:00:00 8.4 4 Sudeste 12 Sudeste 0 -- -- 88
2020-01-24 13:00:00 7.7 3 Este 10 Sudeste 0 -- -- 92
2020-01-24 12:00:00 7.2 3 Este 6 Este 0 -- -- 95
2020-01-24 11:00:00 6.3 0 Calma 3 Sudeste 0 -- -- 98
2020-01-24 10:00:00 5.8 0 Calma 2 Sur 0.2 -- -- 98
2020-01-24 09:00:00 5.5 0 Calma 4 Oeste 1 -- -- 98
2020-01-24 08:00:00 5.4 0 Calma 4 Noroeste 0.8 -- -- 98
2020-01-24 07:00:00 5.3 3 Noroeste 4 Noroeste 0.4 -- -- 97
2020-01-24 06:00:00 5.3 0 Calma 2 Sudoeste 0.2 -- -- 97
2020-01-24 05:00:00 5.3 2 Noroeste 4 Noroeste 1.2 -- -- 97
2020-01-24 04:00:00 5.5 2 Norte 5 Sur 2.6 -- -- 96
2020-01-24 03:00:00 5.8 3 Sur 14 Sur 2.8 -- -- 91
2020-01-24 02:00:00 6.1 3 Sur 13 Sudoeste 1.8 -- -- 94
2020-01-24 01:00:00 6.4 0 Calma 4 Sur 1.4 -- -- 96
2020-01-24 00:00:00 6.5 3 Este 11 Nordeste 1.4 -- -- 96
2020-01-23 23:00:00 6.6 5 Nordeste 9 Este 1.8 -- -- 96
2020-01-23 22:00:00 6.8 4 Nordeste 9 Nordeste 0.8 -- -- 95
2020-01-23 21:00:00 6.8 2 Nordeste 5 Nordeste 1.2 -- -- 95
2020-01-23 20:00:00 6.8 2 Norte 5 Oeste 0.4 -- -- 96
2020-01-23 19:00:00 6.8 0 Calma 5 Nordeste 0 -- -- 95
2020-01-23 18:00:00 7 2 Norte 5 Norte 0 -- -- 94
2020-01-23 17:00:00 6.9 0 Calma 6 Este 0.2 -- -- 94
2020-01-23 16:00:00 6.8 2 Este 8 Nordeste 1.2 -- -- 95
2020-01-23 15:00:00 6.7 0 Calma 5 Oeste 1.4 -- -- 92
2020-01-23 14:00:00 6.7 3 Oeste 6 Oeste 0.2 -- -- 92
2020-01-23 13:00:00 6.7 0 Calma 8 Sudeste 0.2 -- -- 91
2020-01-23 12:00:00 6.6 0 Calma 3 Sudeste 0 -- -- 91
2020-01-23 11:00:00 5.8 0 Calma 3 Oeste 0 -- -- 93
2020-01-23 10:00:00 5.5 0 Calma 3 Noroeste 0 -- -- 95
2020-01-23 09:00:00 5.1 0 Calma 4 Oeste 0.2 -- -- 96
2020-01-23 08:00:00 5.1 0 Calma 3 Oeste 0.4 -- -- 96
2020-01-23 07:00:00 5.2 2 Sudeste 6 Nordeste 1.6 -- -- 96
2020-01-23 06:00:00 5.4 3 Este 7 Nordeste 1.2 -- -- 93
2020-01-23 05:00:00 5.6 0 Calma 3 Este 0.4 -- -- 93
2020-01-23 04:00:00 5.9 2 Este 4 Este 0 -- -- 87
2020-01-23 03:00:00 5.7 0 Calma 4 Oeste 0 -- -- 88
2020-01-23 02:00:00 6.1 2 Oeste 5 Oeste 0 -- -- 86
2020-01-23 01:00:00 6.3 0 Calma 5 Nordeste 0 -- -- 86
2020-01-23 00:00:00 6.3 0 Calma 4 Sur 0 -- -- 84
2020-01-22 23:00:00 6.1 0 Calma 7 Oeste 0 -- -- 84
2020-01-22 22:00:00 6.6 2 Norte 8 Sudeste 0 -- -- 83
2020-01-22 21:00:00 7 0 Calma 10 Nordeste 0 -- -- 79
2020-01-22 20:00:00 7 0 Calma 13 Nordeste 0 -- -- 78
2020-01-22 19:00:00 8.4 4 Nordeste 11 Nordeste 0 -- -- 69
2020-01-22 18:00:00 8.7 3 Nordeste 11 Nordeste 0 -- -- 71
2020-01-22 17:00:00 9.2 5 Nordeste 10 Nordeste 0 -- -- 70
2020-01-22 16:00:00 9.6 3 Nordeste 10 Este 0 -- -- 68
2020-01-22 15:00:00 8.6 3 Sudoeste 5 Sudoeste 0 -- -- 76
2020-01-22 14:00:00 8.4 2 Este 9 Sudeste 0 -- -- 75
2020-01-22 13:00:00 7.8 3 Sudeste 10 Sudeste 0 -- -- 79
2020-01-22 12:00:00 6.2 5 Este 15 Nordeste 0.2 -- -- 88
2020-01-22 11:00:00 5.7 6 Este 15 Este 0.4 -- -- 88
2020-01-22 10:00:00 5.7 8 Este 19 Este 0 -- -- 84
2020-01-22 09:00:00 6 7 Nordeste 19 Nordeste 0 -- -- 80
2020-01-22 08:00:00 6.1 8 Nordeste 16 Este 0 -- -- 79
2020-01-22 07:00:00 6.2 8 Este 23 Norte 0 -- -- 77
2020-01-22 06:00:00 6.5 9 Este 18 Este 0 -- -- 73
2020-01-22 05:00:00 6.2 4 Este 19 Nordeste 0 -- -- 76
2020-01-22 04:00:00 6.5 9 Nordeste 19 Nordeste 0 -- -- 74
2020-01-22 03:00:00 6.5 5 Nordeste 26 Norte 0 -- -- 74
2020-01-22 02:00:00 6.4 8 Nordeste 22 Norte 0 -- -- 73
2020-01-22 01:00:00 5.3 3 Sudoeste 11 Nordeste 0 -- -- 79
2020-01-22 00:00:00 4.8 0 Calma 8 Oeste 0 -- -- 82
2020-01-21 23:00:00 5 2 Noroeste 6 Este 0 -- -- 81
2020-01-21 22:00:00 5.1 3 Nordeste 21 Norte 0 -- -- 79
2020-01-21 21:00:00 5.1 8 Norte 21 Norte 0 -- -- 78
2020-01-21 20:00:00 5.6 3 Nordeste 28 Este 0 -- -- 78
2020-01-21 19:00:00 6.4 12 Nordeste 32 Nordeste 0 -- -- 70
2020-01-21 18:00:00 6.9 15 Nordeste 38 Nordeste 0 -- -- 67
2020-01-21 17:00:00 7.4 13 Norte 31 Nordeste 0 -- -- 63
2020-01-21 16:00:00 7.7 17 Nordeste 31 Nordeste 0 -- -- 63
2020-01-21 15:00:00 7.5 10 Nordeste 33 Norte 0 -- -- 65
2020-01-21 14:00:00 6.9 13 Norte 33 Nordeste 0 -- -- 69
2020-01-21 13:00:00 7.6 12 Nordeste 43 Este 0 -- -- 62
2020-01-21 12:00:00 6.1 15 Norte 39 Nordeste 0 -- -- 65
2020-01-21 11:00:00 5.7 8 Norte 39 Nordeste 0 -- -- 63
2020-01-21 10:00:00 5.4 8 Norte 34 Norte 0 -- -- 63
2020-01-21 09:00:00 4.2 8 Noroeste 30 Noroeste 0 -- -- 65
2020-01-21 08:00:00 5.6 14 Norte 50 Norte 0 -- -- 59
2020-01-21 07:00:00 5.4 23 Nordeste 55 Nordeste 0 -- -- 60
2020-01-21 06:00:00 4.7 18 Nordeste 42 Nordeste 0 -- -- 63
2020-01-21 05:00:00 4.9 19 Nordeste 40 Nordeste 0 -- -- 62
2020-01-21 04:00:00 4.9 15 Norte 39 Norte 0 -- -- 61
2020-01-21 03:00:00 4.7 14 Norte 43 Norte 0 -- -- 61
2020-01-21 02:00:00 4.7 22 Norte 49 Norte 0 -- -- 61
2020-01-21 01:00:00 4.9 15 Nordeste 36 Norte 0 -- -- 59
2020-01-21 00:00:00 4.6 9 Nordeste 45 Norte 0 -- -- 62
2020-01-20 23:00:00 4.5 11 Norte 40 Noroeste 0 -- -- 61
2020-01-20 22:00:00 5.1 17 Norte 54 Norte 0 -- -- 58
2020-01-20 21:00:00 4.9 21 Norte 55 Norte 0 -- -- 57
2020-01-20 20:00:00 4.8 26 Norte 58 Norte 0 -- -- 58
2020-01-20 19:00:00 5 20 Norte 46 Norte 0 -- -- 57
2020-01-20 18:00:00 4.6 19 Norte 42 Nordeste 0 -- -- 59
2020-01-20 17:00:00 3.9 12 Norte 40 Noroeste 0 -- -- 68
2020-01-20 16:00:00 2.5 18 Norte 44 Norte 0.2 -- -- 79
2020-01-20 15:00:00 3.4 16 Norte 41 Nordeste 0 -- -- 71
2020-01-20 14:00:00 4.8 15 Nordeste 52 Nordeste 0 -- -- 59
2020-01-20 13:00:00 4.2 19 Norte 53 Norte 0.2 -- -- 60
2020-01-20 12:00:00 4.4 8 Nordeste 42 Nordeste 0 -- -- 49
2020-01-20 11:00:00 4.3 14 Este 48 Este 0 -- -- 42
2020-01-20 10:00:00 4.1 17 Norte 58 Norte 0 -- -- 30
2020-01-20 09:00:00 3.7 12 Nordeste 37 Norte 0 -- -- 31
2020-01-20 08:00:00 3.5 13 Nordeste 32 Este 0 -- -- 29
2020-01-20 07:00:00 3.9 6 Este 43 Norte 0 -- -- 29
2020-01-20 06:00:00 4.3 17 Norte 38 Este 0 -- -- 28
2020-01-20 05:00:00 4.2 15 Nordeste 52 Norte 0 -- -- 31
2020-01-20 04:00:00 4.4 24 Nordeste 57 Este 0 -- -- 31
2020-01-20 03:00:00 4.2 17 Nordeste 67 Nordeste 0 -- -- 33
2020-01-20 02:00:00 3.7 12 Este 42 Norte 0 -- -- 40
2020-01-20 01:00:00 3.9 12 Norte 42 Norte 0 -- -- 40
2020-01-20 00:00:00 4.1 5 Nordeste 40 Norte 0 -- -- 41
2020-01-19 23:00:00 4.7 16 Norte 43 Nordeste 0 -- -- 36
2020-01-19 22:00:00 5.3 15 Norte 52 Noroeste 0 -- -- 33
2020-01-19 21:00:00 6.1 23 Norte 56 Norte 0 -- -- 34
2020-01-19 20:00:00 7 15 Norte 39 Este 0 -- -- 33
2020-01-19 19:00:00 7.7 14 Nordeste 46 Nordeste 0 -- -- 33
2020-01-19 18:00:00 8.3 18 Norte 51 Norte 0 -- -- 33
2020-01-19 17:00:00 8.8 14 Nordeste 46 Nordeste 0 -- -- 34
2020-01-19 16:00:00 9.1 14 Nordeste 41 Norte 0 -- -- 36
2020-01-19 15:00:00 8.8 9 Norte 36 Noroeste 0 -- -- 46
2020-01-19 14:00:00 9 9 Nordeste 51 Nordeste 0 -- -- 51
2020-01-19 13:00:00 9.8 12 Nordeste 41 Nordeste 0 -- -- 53
2020-01-19 12:00:00 9.9 13 Norte 39 Este 0.2 -- -- 53
2020-01-19 11:00:00 8.5 7 Sur 23 Sudeste 0 -- -- 58
2020-01-19 10:00:00 8.5 5 Noroeste 21 Sudoeste 0 -- -- 61
2020-01-19 09:00:00 6 8 Noroeste 18 Oeste 0 -- -- 69
2020-01-19 08:00:00 4.3 4 Noroeste 11 Noroeste 0 -- -- 82
2020-01-19 07:00:00 5.6 7 Noroeste 26 Norte 0 -- -- 79
2020-01-19 06:00:00 5.9 13 Norte 28 Noroeste 0 -- -- 83
2020-01-19 05:00:00 6.9 15 Noroeste 37 Noroeste 0 -- -- 75
2020-01-19 04:00:00 7.3 14 Noroeste 35 Noroeste 0 -- -- 75
2020-01-19 03:00:00 7.2 14 Noroeste 36 Norte 0 -- -- 76
2020-01-19 02:00:00 7.2 7 Noroeste 30 Oeste 0 -- -- 74
2020-01-19 01:00:00 7.8 9 Norte 30 Noroeste 0.2 -- -- 74
2020-01-19 00:00:00 9 7 Noroeste 37 Noroeste 0 -- -- 80
2020-01-18 23:00:00 9.1 7 Norte 31 Noroeste 0 -- -- 74
2020-01-18 22:00:00 9.7 10 Noroeste 39 Noroeste 0.6 -- -- 75
2020-01-18 21:00:00 11.6 6 Sur 26 Sudoeste 0 -- -- 77
2020-01-18 20:00:00 11.4 7 Sur 24 Sudoeste 0 -- -- 75
2020-01-18 19:00:00 10.7 4 Sudeste 25 Oeste 0 -- -- 87
2020-01-18 18:00:00 9.8 5 Sur 17 Norte 0 -- -- 97
2020-01-18 17:00:00 9.5 5 Nordeste 13 Este 0.2 -- -- 98
2020-01-18 16:00:00 8.7 6 Nordeste 14 Nordeste 0.2 -- -- 98
2020-01-18 15:00:00 8.4 3 Sudeste 6 Este 0.6 -- -- 96
2020-01-18 14:00:00 8.4 2 Este 5 Sudeste 1 -- -- 95
2020-01-18 13:00:00 7.9 2 Este 3 Este 1 -- -- 96
2020-01-18 12:00:00 7.4 0 Calma 3 Este 1 -- -- 97
2020-01-18 11:00:00 7.1 0 Calma 5 Este 2.2 -- -- 98
2020-01-18 10:00:00 6.8 3 Este 6 Sudeste 1.6 -- -- 98
2020-01-18 09:00:00 6.7 3 Este 6 Sudeste 1.8 -- -- 98
2020-01-18 08:00:00 6.4 0 Calma 8 Oeste 2 -- -- 97
2020-01-18 07:00:00 6.4 0 Calma 6 Oeste 1 -- -- 96
2020-01-18 06:00:00 6.4 4 Oeste 6 Oeste 0.4 -- -- 95
2020-01-18 05:00:00 6.4 0 Calma 3 Oeste 0 -- -- 91
2020-01-18 04:00:00 6.3 3 Oeste 4 Oeste 0 -- -- 89
2020-01-18 03:00:00 6.5 0 Calma 8 Oeste 0 -- -- 89
2020-01-18 02:00:00 6.9 0 Calma 5 Noroeste 0 -- -- 87
2020-01-18 01:00:00 6.6 0 Calma 6 Noroeste 0 -- -- 85
2020-01-18 00:00:00 6.1 0 Calma 4 Noroeste 0 -- -- 88
2020-01-17 23:00:00 6.1 0 Calma 5 Oeste 0 -- -- 86
2020-01-17 22:00:00 6.5 0 Calma 6 Oeste 0 -- -- 85
2020-01-17 21:00:00 6.2 0 Calma 6 Oeste 0 -- -- 88
2020-01-17 20:00:00 6.1 0 Calma 4 Sudoeste 0 -- -- 87
2020-01-17 19:00:00 7 0 Calma 6 Nordeste 0 -- -- 84
2020-01-17 18:00:00 8.2 0 Calma 14 Sudoeste 0 -- -- 79
2020-01-17 17:00:00 10.9 3 Sudoeste 12 Sudoeste 0 -- -- 63
2020-01-17 16:00:00 12.4 6 Sur 15 Sudoeste 0 -- -- 69
2020-01-17 15:00:00 11.9 5 Sudeste 12 Este 0 -- -- 77
2020-01-17 14:00:00 10.8 3 Sudeste 9 Este 0.2 -- -- 84
2020-01-17 13:00:00 9.2 3 Este 7 Nordeste 0.4 -- -- 94
2020-01-17 12:00:00 8.8 4 Este 11 Este 0.2 -- -- 93
2020-01-17 11:00:00 8.8 3 Este 15 Este 0 -- -- 86
2020-01-17 10:00:00 9.7 5 Este 9 Este 0 -- -- 78
2020-01-17 09:00:00 7.1 3 Nordeste 6 Sudeste 0 -- -- 89
2020-01-17 08:00:00 6.6 0 Calma 9 Nordeste 0 -- -- 91
2020-01-17 07:00:00 7.6 5 Nordeste 8 Nordeste 0 -- -- 87
2020-01-17 06:00:00 8.3 3 Nordeste 10 Nordeste 0 -- -- 86
2020-01-17 05:00:00 8.2 4 Nordeste 8 Este 0 -- -- 84
2020-01-17 04:00:00 8.1 3 Este 7 Sudeste 0 -- -- 82
2020-01-17 03:00:00 7.8 0 Calma 13 Este 0 -- -- 83
2020-01-17 02:00:00 7.8 8 Nordeste 16 Sur 0 -- -- 82
2020-01-17 01:00:00 8.3 7 Sur 18 Sudoeste 0 -- -- 77
2020-01-17 00:00:00 8.9 4 Sudoeste 16 Sur 0 -- -- 70
2020-01-16 23:00:00 9.8 6 Sur 19 Sudoeste 0 -- -- 59
2020-01-16 22:00:00 9.5 0 Calma 18 Sur 0 -- -- 65
2020-01-16 21:00:00 8.8 2 Oeste 8 Sur 0 -- -- 67
2020-01-16 20:00:00 8.7 2 Sur 10 Sur 0 -- -- 65
2020-01-16 19:00:00 9.9 0 Calma 10 Sur 0 -- -- 63
2020-01-16 18:00:00 11.3 2 Sudoeste 12 Sudeste 0 -- -- 58
2020-01-16 17:00:00 12.8 5 Sur 21 Sur 0 -- -- 56
2020-01-16 16:00:00 14.1 6 Sur 23 Sur 0 -- -- 48
2020-01-16 15:00:00 14.7 7 Sur 18 Sur 0 -- -- 48
2020-01-16 14:00:00 14.7 10 Sur 23 Sudoeste 0 -- -- 49
2020-01-16 13:00:00 14.3 7 Sur 16 Sur 0 -- -- 56
2020-01-16 12:00:00 10.7 2 Noroeste 6 Sudeste 0 -- -- 83
2020-01-16 11:00:00 9.5 0 Calma 4 Sur 0 -- -- 88
2020-01-16 10:00:00 8.6 0 Calma 3 Oeste 0 -- -- 96
2020-01-16 09:00:00 8.3 2 Este 4 Este 0 -- -- 97
2020-01-16 08:00:00 8.4 3 Nordeste 5 Nordeste 0.2 -- -- 97
2020-01-16 07:00:00 8.4 0 Calma 0 Calma 0 -- -- 97
2020-01-16 06:00:00 8.4 0 Calma 2 Noroeste 0 -- -- 97
2020-01-16 05:00:00 8.3 0 Calma 3 Norte 0.2 -- -- 97
2020-01-16 04:00:00 8.5 0 Calma 4 Norte 0 -- -- 96
2020-01-16 03:00:00 8.7 2 Nordeste 4 Nordeste 0.2 -- -- 96
2020-01-16 02:00:00 8.4 0 Calma 3 Noroeste 0 -- -- 95
2020-01-16 01:00:00 8.3 0 Calma 2 Sur 0 -- -- 95
2020-01-16 00:00:00 8.3 0 Calma 5 Oeste 0 -- -- 95
2020-01-15 23:00:00 8.2 0 Calma 6 Noroeste 0 -- -- 95
2020-01-15 22:00:00 8.1 0 Calma 6 Noroeste 0 -- -- 94
2020-01-15 21:00:00 7.9 0 Calma 4 Norte 0 -- -- 93
2020-01-15 20:00:00 7.7 2 Sudoeste 7 Oeste 0 -- -- 93
2020-01-15 19:00:00 7.5 3 Noroeste 4 Oeste 0 -- -- 92
2020-01-15 18:00:00 7.6 0 Calma 6 Oeste 0 -- -- 92
2020-01-15 17:00:00 7.3 2 Oeste 5 Oeste 0 -- -- 92
2020-01-15 16:00:00 7.3 0 Calma 5 Sudeste 0 -- -- 90
2020-01-15 15:00:00 7.6 3 Este 5 Sudeste 0 -- -- 84
2020-01-15 14:00:00 7.4 0 Calma 4 Sur 0 -- -- 86
2020-01-15 13:00:00 6.9 3 Este 12 Este 0 -- -- 86
2020-01-15 12:00:00 6.8 2 Este 6 Este 0 -- -- 85
2020-01-15 11:00:00 6.3 0 Calma 4 Sur 0 -- -- 90
2020-01-15 10:00:00 5.7 0 Calma 7 Nordeste 0 -- -- 91
2020-01-15 09:00:00 5.7 2 Nordeste 6 Nordeste 0 -- -- 89
2020-01-15 08:00:00 5 0 Calma 4 Oeste 0 -- -- 94
2020-01-15 07:00:00 4.3 0 Calma 4 Norte 0 -- -- 95
2020-01-15 06:00:00 3.9 2 Noroeste 5 Noroeste 0 -- -- 95
2020-01-15 05:00:00 4.9 0 Calma 7 Norte 0 -- -- 91
2020-01-15 04:00:00 6.4 2 Este 5 Sudeste 0 -- -- 86
2020-01-15 03:00:00 6.9 0 Calma 7 Sudoeste 0 -- -- 85
2020-01-15 02:00:00 7.3 0 Calma 14 Sur 0 -- -- 83
2020-01-15 01:00:00 7.6 3 Norte 13 Sur 0 -- -- 80
2020-01-15 00:00:00 7.7 4 Sur 11 Sudoeste 0 -- -- 80
2020-01-14 23:00:00 7.5 0 Calma 4 Nordeste 0 -- -- 82
2020-01-14 22:00:00 7.6 3 Sudeste 5 Este 0 -- -- 80
2020-01-14 21:00:00 7.6 0 Calma 2 Noroeste 0 -- -- 80
2020-01-14 20:00:00 7.5 0 Calma 2 Norte 0 -- -- 79
2020-01-14 19:00:00 7.6 0 Calma 3 Nordeste 0 -- -- 78
2020-01-14 18:00:00 8.2 0 Calma 10 Sudoeste 0 -- -- 71
2020-01-14 17:00:00 9 4 Nordeste 17 Sudeste 0 -- -- 72
2020-01-14 16:00:00 9.9 8 Este 14 Este 0 -- -- 66
2020-01-14 15:00:00 9.8 6 Este 13 Este 0 -- -- 65
2020-01-14 14:00:00 9.9 5 Sudeste 13 Sudeste 0 -- -- 65
2020-01-14 13:00:00 9.7 5 Sudeste 11 Sudeste 0 -- -- 64
2020-01-14 12:00:00 8.6 5 Sudeste 11 Sudeste 0 -- -- 69
2020-01-14 11:00:00 7.6 4 Sudeste 6 Sudeste 0 -- -- 70
2020-01-14 10:00:00 5.6 0 Calma 3 Norte 0 -- -- 79
2020-01-14 09:00:00 0.8 2 Noroeste 3 Noroeste 0 -- -- 97
2020-01-14 08:00:00 0.2 0 Calma 4 Norte 0 -- -- 95
2020-01-14 07:00:00 0.3 0 Calma 3 Noroeste 0 -- -- 95
2020-01-14 06:00:00 0.4 0 Calma 4 Noroeste 0 -- -- 94
2020-01-14 05:00:00 0.5 0 Calma 6 Oeste 0 -- -- 93
2020-01-14 04:00:00 0.7 0 Calma 3 Nordeste 0 -- -- 93
2020-01-14 03:00:00 1.3 0 Calma 3 Noroeste 0 -- -- 89
2020-01-14 02:00:00 2 0 Calma 4 Nordeste 0 -- -- 87
2020-01-14 01:00:00 2.3 0 Calma 4 Noroeste 0 -- -- 86
2020-01-14 00:00:00 2.7 0 Calma 4 Noroeste 0 -- -- 84
2020-01-13 23:00:00 2.6 2 Norte 4 Norte 0 -- -- 81
2020-01-13 22:00:00 2.9 2 Noroeste 5 Noroeste 0 -- -- 80
2020-01-13 21:00:00 2.9 0 Calma 4 Noroeste 0 -- -- 81
2020-01-13 20:00:00 2.8 0 Calma 3 Norte 0 -- -- 85
2020-01-13 19:00:00 4.2 2 Noroeste 7 Noroeste 0 -- -- 79
2020-01-13 18:00:00 6.6 3 Noroeste 10 Sudoeste 0 -- -- 70
2020-01-13 17:00:00 8.8 3 Sur 15 Este 0 -- -- 61
2020-01-13 16:00:00 10.5 6 Este 14 Este 0 -- -- 59
2020-01-13 15:00:00 11.8 5 Sudeste 12 Este 0 -- -- 53
2020-01-13 14:00:00 10 8 Este 14 Este 0 -- -- 64
2020-01-13 13:00:00 9.8 5 Sudeste 9 Sudeste 0 -- -- 63
2020-01-13 12:00:00 8.6 3 Sudeste 5 Sudeste 0 -- -- 62
2020-01-13 11:00:00 6.9 2 Sudeste 4 Sudeste 0 -- -- 69
2020-01-13 10:00:00 4.7 0 Calma 2 Este 0 -- -- 77
2020-01-13 09:00:00 1.7 0 Calma 2 Noroeste 0 -- -- 93
2020-01-13 08:00:00 1.2 0 Calma 4 Noroeste 0 -- -- 90
2020-01-13 07:00:00 1 3 Noroeste 5 Noroeste 0 -- -- 90
2020-01-13 06:00:00 1.5 0 Calma 3 Norte 0 -- -- 87
2020-01-13 05:00:00 2 0 Calma 3 Norte 0 -- -- 86
2020-01-13 04:00:00 2.3 0 Calma 3 Norte 0 -- -- 87
2020-01-13 03:00:00 2.5 0 Calma 3 Noroeste 0 -- -- 87
2020-01-13 02:00:00 2.3 0 Calma 2 Noroeste 0 -- -- 90
2020-01-13 01:00:00 2.7 0 Calma 2 Noroeste 0 -- -- 90
2020-01-13 00:00:00 2.8 0 Calma 3 Norte 0 -- -- 89
2020-01-12 23:00:00 3.1 2 Noroeste 3 Noroeste 0 -- -- 86
2020-01-12 22:00:00 3.5 0 Calma 4 Norte 0 -- -- 84
2020-01-12 21:00:00 3.6 0 Calma 3 Noroeste 0 -- -- 84
2020-01-12 20:00:00 4.4 0 Calma 3 Nordeste 0 -- -- 79
2020-01-12 19:00:00 5.8 2 Norte 5 Noroeste 0 -- -- 80
2020-01-12 18:00:00 7.4 0 Calma 8 Sudeste 0 -- -- 75
2020-01-12 17:00:00 10.4 3 Sudeste 12 Sudeste 0 -- -- 59
2020-01-12 16:00:00 12.5 6 Sudeste 14 Sudeste 0 -- -- 51
2020-01-12 15:00:00 13.1 6 Este 13 Este 0 -- -- 49
2020-01-12 14:00:00 12.8 4 Sudeste 10 Sudeste 0 -- -- 50
2020-01-12 13:00:00 11.9 4 Este 11 Sudeste 0 -- -- 50
2020-01-12 12:00:00 10.5 3 Este 7 Sudeste 0 -- -- 54
2020-01-12 11:00:00 9.1 3 Sudeste 4 Sudeste 0 -- -- 55
2020-01-12 10:00:00 7 0 Calma 2 Este 0 -- -- 59
2020-01-12 09:00:00 1.9 0 Calma 3 Noroeste 0 -- -- 83
2020-01-12 08:00:00 1.2 0 Calma 3 Norte 0 -- -- 82
2020-01-12 07:00:00 1.7 0 Calma 2 Norte 0 -- -- 81
2020-01-12 06:00:00 2 0 Calma 3 Norte 0 -- -- 81
2020-01-12 05:00:00 2.3 0 Calma 2 Noroeste 0 -- -- 81
2020-01-12 04:00:00 2.4 0 Calma 3 Noroeste 0 -- -- 80
2020-01-12 03:00:00 2.6 0 Calma 3 Noroeste 0 -- -- 79
2020-01-12 02:00:00 3 0 Calma 4 Norte 0 -- -- 78
2020-01-12 01:00:00 3.1 0 Calma 4 Nordeste 0 -- -- 77
2020-01-12 00:00:00 3.6 0 Calma 3 Norte 0 -- -- 75
2020-01-11 23:00:00 3.7 0 Calma 2 Noroeste 0 -- -- 75
2020-01-11 22:00:00 3.6 0 Calma 4 Noroeste 0 -- -- 75
2020-01-11 21:00:00 4 0 Calma 3 Norte 0 -- -- 74
2020-01-11 20:00:00 4.5 0 Calma 3 Norte 0 -- -- 73
2020-01-11 19:00:00 5.6 0 Calma 5 Noroeste 0 -- -- 68
2020-01-11 18:00:00 8.2 3 Oeste 7 Sur 0 -- -- 58
2020-01-11 17:00:00 10.5 4 Sur 10 Sudeste 0 -- -- 49
2020-01-11 16:00:00 13.1 4 Sudeste 12 Sudeste 0 -- -- 40
2020-01-11 15:00:00 13.2 6 Sudeste 12 Sudeste 0 -- -- 40
2020-01-11 14:00:00 13.2 4 Sur 14 Sudeste 0 -- -- 40
2020-01-11 13:00:00 12.4 6 Sudeste 13 Sudeste 0 -- -- 45
2020-01-11 12:00:00 11.6 3 Sudeste 9 Sudeste 0 -- -- 42
2020-01-11 11:00:00 9.9 3 Sudeste 5 Sudeste 0 -- -- 46
2020-01-11 10:00:00 7.7 0 Calma 11 Norte 0 -- -- 53
2020-01-11 09:00:00 3.7 2 Oeste 9 Noroeste 0 -- -- 69
2020-01-11 08:00:00 5.5 8 Norte 17 Norte 0 -- -- 55
2020-01-11 07:00:00 3.2 6 Noroeste 14 Norte 0 -- -- 66
2020-01-11 06:00:00 3.4 4 Noroeste 8 Norte 0 -- -- 69
2020-01-11 05:00:00 4.3 5 Norte 10 Nordeste 0 -- -- 65
2020-01-11 04:00:00 4.7 4 Nordeste 9 Nordeste 0 -- -- 62
2020-01-11 03:00:00 5.6 5 Norte 13 Nordeste 0 -- -- 60
2020-01-11 02:00:00 5.1 3 Norte 11 Norte 0 -- -- 61
2020-01-11 01:00:00 6.4 5 Nordeste 15 Noroeste 0 -- -- 57
2020-01-11 00:00:00 7 10 Norte 17 Norte 0 -- -- 54
2020-01-10 23:00:00 7 5 Norte 17 Norte 0 -- -- 55
2020-01-10 22:00:00 7.1 5 Norte 23 Norte 0 -- -- 55
2020-01-10 21:00:00 7.9 8 Norte 22 Noroeste 0 -- -- 51
2020-01-10 20:00:00 8 6 Norte 19 Norte 0 -- -- 52
2020-01-10 19:00:00 8.2 8 Norte 24 Norte 0 -- -- 50
2020-01-10 18:00:00 8.8 9 Norte 26 Nordeste 0 -- -- 51
2020-01-10 17:00:00 9.9 4 Nordeste 19 Nordeste 0 -- -- 45
2020-01-10 16:00:00 10.8 5 Nordeste 15 Nordeste 0 -- -- 44
2020-01-10 15:00:00 11.4 11 Este 24 Este 0 -- -- 44
2020-01-10 14:00:00 12.3 11 Este 21 Este 0 -- -- 38
2020-01-10 13:00:00 12.4 10 Sudeste 19 Sudeste 0 -- -- 39
2020-01-10 12:00:00 11.6 8 Este 23 Este 0 -- -- 45
2020-01-10 11:00:00 9.6 3 Sudeste 8 Sudeste 0 -- -- 73
2020-01-10 10:00:00 5.4 2 Oeste 10 Noroeste 0 -- -- 98
2020-01-10 09:00:00 3.9 5 Noroeste 10 Oeste 0 -- -- 99
2020-01-10 08:00:00 4 2 Nordeste 8 Este 0 -- -- 99
2020-01-10 07:00:00 4 0 Calma 6 Noroeste 0 -- -- 99
2020-01-10 06:00:00 3.6 0 Calma 4 Noroeste 0 -- -- 99
2020-01-10 05:00:00 3.6 0 Calma 4 Sur 0 -- -- 97
2020-01-10 04:00:00 4.1 2 Noroeste 5 Norte 0 -- -- 95
2020-01-10 03:00:00 5 0 Calma 8 Oeste 0 -- -- 91
2020-01-10 02:00:00 7.8 3 Norte 13 Noroeste 0 -- -- 84
2020-01-10 01:00:00 8.3 2 Noroeste 10 Noroeste 0 -- -- 91
2020-01-10 00:00:00 6.3 3 Noroeste 12 Noroeste 0 -- -- 96
2020-01-09 23:00:00 5.8 0 Calma 6 Sudeste 0 -- -- 96
2020-01-09 22:00:00 6 0 Calma 7 Noroeste 0 -- -- 94
2020-01-09 21:00:00 6.1 0 Calma 5 Noroeste 0 -- -- 93
2020-01-09 20:00:00 6.7 2 Norte 5 Noroeste 0 -- -- 91
2020-01-09 19:00:00 7.5 0 Calma 4 Norte 0 -- -- 87
2020-01-09 18:00:00 10 0 Calma 8 Este 0 -- -- 77
2020-01-09 17:00:00 11.6 5 Sudeste 14 Este 0 -- -- 68
2020-01-09 16:00:00 14 4 Este 12 Sudeste 0 -- -- 59
2020-01-09 15:00:00 14 7 Sudeste 13 Este 0 -- -- 60
2020-01-09 14:00:00 14 8 Este 12 Sudeste 0 -- -- 59
2020-01-09 13:00:00 13.5 6 Sudeste 10 Sudeste 0 -- -- 55
2020-01-09 12:00:00 12.1 4 Sudeste 9 Sudeste 0 -- -- 57
2020-01-09 11:00:00 11.4 3 Sudeste 6 Sudeste 0 -- -- 57
2020-01-09 10:00:00 8.9 0 Calma 2 Este 0 -- -- 65
2020-01-09 09:00:00 4.5 0 Calma 3 Noroeste 0 -- -- 85
2020-01-09 08:00:00 4.2 0 Calma 2 Noroeste 0 -- -- 82
2020-01-09 07:00:00 4.4 0 Calma 3 Noroeste 0 -- -- 83
2020-01-09 06:00:00 5 0 Calma 4 Norte 0 -- -- 78
2020-01-09 05:00:00 5 0 Calma 3 Noroeste 0 -- -- 79
2020-01-09 04:00:00 5.1 0 Calma 2 Norte 0 -- -- 67
2020-01-09 03:00:00 5 0 Calma 3 Noroeste 0 -- -- 64
2020-01-09 02:00:00 5.6 0 Calma 2 Noroeste 0 -- -- 60
2020-01-09 01:00:00 5.8 0 Calma 4 Norte 0 -- -- 57
2020-01-09 00:00:00 6 0 Calma 2 Noroeste 0 -- -- 62
2020-01-08 23:00:00 6.5 0 Calma 2 Noroeste 0 -- -- 63
2020-01-08 22:00:00 6.2 0 Calma 3 Noroeste 0 -- -- 74
2020-01-08 21:00:00 6.4 0 Calma 3 Norte 0 -- -- 75
2020-01-08 20:00:00 6.9 0 Calma 2 Noroeste 0 -- -- 75
2020-01-08 19:00:00 7.4 0 Calma 3 Noroeste 0 -- -- 73
2020-01-08 18:00:00 9.4 2 Oeste 5 Sur 0 -- -- 65
2020-01-08 17:00:00 12.6 3 Sur 7 Sudeste 0 -- -- 45
2020-01-08 16:00:00 15.6 3 Sudeste 9 Este 0 -- -- 39
2020-01-08 15:00:00 15.7 5 Sudeste 9 Sudeste 0 -- -- 47
2020-01-08 14:00:00 15.1 5 Sudeste 10 Sudeste 0 -- -- 49
2020-01-08 13:00:00 14.6 4 Este 9 Sudeste 0 -- -- 48
2020-01-08 12:00:00 12.9 4 Sudeste 6 Sudeste 0 -- -- 62
2020-01-08 11:00:00 10.7 2 Sudeste 4 Sudeste 0 -- -- 70
2020-01-08 10:00:00 7.4 0 Calma 2 Oeste 0 -- -- 84
2020-01-08 09:00:00 4 0 Calma 2 Noroeste 0 -- -- 93
2020-01-08 08:00:00 3.4 0 Calma 2 Noroeste 0 -- -- 93
2020-01-08 07:00:00 3.2 0 Calma 2 Norte 0 -- -- 91
2020-01-08 06:00:00 3.4 0 Calma 2 Norte 0 -- -- 91
2020-01-08 05:00:00 3.8 0 Calma 2 Nordeste 0 -- -- 90
2020-01-08 04:00:00 4.3 0 Calma 2 Nordeste 0 -- -- 87
2020-01-08 03:00:00 4.6 0 Calma 3 Noroeste 0 -- -- 87
2020-01-08 02:00:00 5 0 Calma 2 Noroeste 0 -- -- 85
2020-01-08 01:00:00 5.5 0 Calma 2 Norte 0 -- -- 83
2020-01-08 00:00:00 5.9 0 Calma 2 Norte 0 -- -- 82
2020-01-07 23:00:00 6.2 0 Calma 2 Norte 0 -- -- 83
2020-01-07 22:00:00 6.7 0 Calma 3 Norte 0 -- -- 81
2020-01-07 21:00:00 7.1 0 Calma 4 Noroeste 0 -- -- 81
2020-01-07 20:00:00 8.1 0 Calma 7 Noroeste 0 -- -- 78
2020-01-07 19:00:00 8.4 3 Norte 6 Noroeste 0 -- -- 79
2020-01-07 18:00:00 10.2 0 Calma 4 Sur 0 -- -- 76
2020-01-07 17:00:00 13.2 2 Sur 8 Sur 0 -- -- 63
2020-01-07 16:00:00 16 4 Sudeste 9 Sudeste 0 -- -- 53
2020-01-07 15:00:00 16.2 4 Sudeste 10 Sudeste 0 -- -- 51
2020-01-07 14:00:00 15.6 4 Sudeste 9 Sudeste 0 -- -- 54
2020-01-07 13:00:00 15.2 3 Este 8 Sudeste 0 -- -- 49
2020-01-07 12:00:00 12.9 2 Este 5 Este 0 -- -- 57
2020-01-07 11:00:00 10.9 2 Sudeste 5 Sudeste 0 -- -- 56
2020-01-07 10:00:00 8.5 0 Calma 2 Sudeste 0 -- -- 63
2020-01-07 09:00:00 3.4 0 Calma 2 Noroeste 0 -- -- 81
2020-01-07 08:00:00 3.3 0 Calma 4 Norte 0 -- -- 79
2020-01-07 07:00:00 4.6 0 Calma 3 Nordeste 0 -- -- 74
2020-01-07 06:00:00 4.6 0 Calma 4 Norte 0 -- -- 77
2020-01-07 05:00:00 4.9 0 Calma 2 Norte 0 -- -- 79
2020-01-07 04:00:00 4.5 0 Calma 3 Noroeste 0 -- -- 84
2020-01-07 03:00:00 4.8 0 Calma 3 Noroeste 0 -- -- 83
2020-01-07 02:00:00 4.9 0 Calma 3 Noroeste 0 -- -- 84
2020-01-07 01:00:00 5.1 0 Calma 2 Noroeste 0 -- -- 84
2020-01-07 00:00:00 5.1 0 Calma 2 Noroeste 0 -- -- 86
2020-01-06 23:00:00 5.5 0 Calma 4 Noroeste 0 -- -- 84
2020-01-06 22:00:00 5.7 0 Calma 3 Norte 0 -- -- 86
2020-01-06 21:00:00 6.2 0 Calma 3 Noroeste 0 -- -- 84
2020-01-06 20:00:00 6.5 0 Calma 2 Noroeste 0 -- -- 84
2020-01-06 19:00:00 7.4 0 Calma 12 Norte 0 -- -- 81
2020-01-06 18:00:00 9.3 2 Noroeste 8 Noroeste 0 -- -- 76
2020-01-06 17:00:00 12 2 Sudeste 9 Este 0 -- -- 65
2020-01-06 16:00:00 14.3 4 Sudeste 10 Sudeste 0 -- -- 54
2020-01-06 15:00:00 14.7 5 Sudeste 12 Sudeste 0 -- -- 56
2020-01-06 14:00:00 14.7 4 Este 9 Este 0 -- -- 55
2020-01-06 13:00:00 13.5 5 Este 8 Sudeste 0 -- -- 60
2020-01-06 12:00:00 12 4 Sudeste 6 Sudeste 0 -- -- 62
2020-01-06 11:00:00 10.3 2 Sudeste 4 Sudeste 0 -- -- 63
2020-01-06 10:00:00 8.9 0 Calma 2 Nordeste 0 -- -- 65